sensor_id;sensor_type;location;lat;lon;timestamp;P1;durP1;ratioP1;P2;durP2;ratioP2
4812;SDS011;2420;51.202;8.698;2023-03-15T00:00:19;4.70;;;2.22;;
4812;SDS011;2420;51.202;8.698;2023-03-15T00:02:45;7.47;;;2.47;;
4812;SDS011;2420;51.202;8.698;2023-03-15T00:05:10;7.80;;;2.20;;
4812;SDS011;2420;51.202;8.698;2023-03-15T00:07:39;4.55;;;1.90;;
4812;SDS011;2420;51.202;8.698;2023-03-15T00:10:05;6.82;;;2.28;;
4812;SDS011;2420;51.202;8.698;2023-03-15T00:12:31;4.50;;;1.85;;
4812;SDS011;2420;51.202;8.698;2023-03-15T00:14:58;9.15;;;2.20;;
4812;SDS011;2420;51.202;8.698;2023-03-15T00:17:23;6.63;;;2.00;;
4812;SDS011;2420;51.202;8.698;2023-03-15T00:19:49;9.35;;;2.10;;
4812;SDS011;2420;51.202;8.698;2023-03-15T00:22:15;5.63;;;2.20;;
4812;SDS011;2420;51.202;8.698;2023-03-15T00:24:40;9.50;;;2.15;;
4812;SDS011;2420;51.202;8.698;2023-03-15T00:27:06;8.90;;;2.70;;
4812;SDS011;2420;51.202;8.698;2023-03-15T00:29:31;6.13;;;2.25;;
4812;SDS011;2420;51.202;8.698;2023-03-15T00:31:57;10.45;;;2.47;;
4812;SDS011;2420;51.202;8.698;2023-03-15T00:34:23;6.65;;;2.10;;
4812;SDS011;2420;51.202;8.698;2023-03-15T00:36:52;10.50;;;1.90;;
4812;SDS011;2420;51.202;8.698;2023-03-15T00:39:22;4.53;;;1.75;;
4812;SDS011;2420;51.202;8.698;2023-03-15T00:41:49;8.32;;;2.30;;
4812;SDS011;2420;51.202;8.698;2023-03-15T00:44:15;5.30;;;2.10;;
4812;SDS011;2420;51.202;8.698;2023-03-15T00:46:41;8.13;;;2.03;;
4812;SDS011;2420;51.202;8.698;2023-03-15T00:49:07;8.20;;;1.95;;
4812;SDS011;2420;51.202;8.698;2023-03-15T00:51:32;6.60;;;2.38;;
4812;SDS011;2420;51.202;8.698;2023-03-15T00:53:58;6.65;;;2.70;;
4812;SDS011;2420;51.202;8.698;2023-03-15T00:56:24;5.93;;;3.00;;
4812;SDS011;2420;51.202;8.698;2023-03-15T00:58:51;5.63;;;2.22;;
4812;SDS011;2420;51.202;8.698;2023-03-15T01:01:18;4.88;;;1.88;;
4812;SDS011;2420;51.202;8.698;2023-03-15T01:03:46;4.53;;;1.67;;
4812;SDS011;2420;51.202;8.698;2023-03-15T01:06:13;9.15;;;2.70;;
4812;SDS011;2420;51.202;8.698;2023-03-15T01:08:41;7.47;;;2.10;;
4812;SDS011;2420;51.202;8.698;2023-03-15T01:11:28;7.22;;;2.20;;
4812;SDS011;2420;51.202;8.698;2023-03-15T01:13:53;8.93;;;2.47;;
4812;SDS011;2420;51.202;8.698;2023-03-15T01:16:20;5.90;;;2.58;;
4812;SDS011;2420;51.202;8.698;2023-03-15T01:18:46;8.35;;;2.05;;
4812;SDS011;2420;51.202;8.698;2023-03-15T01:21:13;5.63;;;1.80;;
4812;SDS011;2420;51.202;8.698;2023-03-15T01:23:40;9.50;;;2.22;;
4812;SDS011;2420;51.202;8.698;2023-03-15T01:26:06;7.55;;;1.98;;
4812;SDS011;2420;51.202;8.698;2023-03-15T01:28:34;7.57;;;1.67;;
4812;SDS011;2420;51.202;8.698;2023-03-15T01:31:00;9.45;;;2.08;;
4812;SDS011;2420;51.202;8.698;2023-03-15T01:33:26;5.22;;;1.67;;
4812;SDS011;2420;51.202;8.698;2023-03-15T01:36:02;7.95;;;1.80;;
4812;SDS011;2420;51.202;8.698;2023-03-15T01:38:30;7.95;;;1.67;;
4812;SDS011;2420;51.202;8.698;2023-03-15T01:40:56;5.28;;;1.75;;
4812;SDS011;2420;51.202;8.698;2023-03-15T01:43:22;5.20;;;1.98;;
4812;SDS011;2420;51.202;8.698;2023-03-15T01:46:01;5.38;;;2.20;;
4812;SDS011;2420;51.202;8.698;2023-03-15T01:48:45;9.00;;;2.20;;
4812;SDS011;2420;51.202;8.698;2023-03-15T01:51:18;9.50;;;2.50;;
4812;SDS011;2420;51.202;8.698;2023-03-15T01:53:47;7.88;;;1.88;;
4812;SDS011;2420;51.202;8.698;2023-03-15T01:56:17;9.70;;;2.53;;
4812;SDS011;2420;51.202;8.698;2023-03-15T01:58:43;8.80;;;2.20;;
4812;SDS011;2420;51.202;8.698;2023-03-15T02:01:10;9.57;;;2.55;;
4812;SDS011;2420;51.202;8.698;2023-03-15T02:03:38;12.63;;;2.80;;
4812;SDS011;2420;51.202;8.698;2023-03-15T02:06:10;10.57;;;2.45;;
4812;SDS011;2420;51.202;8.698;2023-03-15T02:08:42;11.25;;;2.55;;
4812;SDS011;2420;51.202;8.698;2023-03-15T02:11:12;11.30;;;2.83;;
4812;SDS011;2420;51.202;8.698;2023-03-15T02:13:41;15.80;;;2.78;;
4812;SDS011;2420;51.202;8.698;2023-03-15T02:16:07;10.30;;;2.47;;
4812;SDS011;2420;51.202;8.698;2023-03-15T02:18:33;12.40;;;2.60;;
4812;SDS011;2420;51.202;8.698;2023-03-15T02:26:43;9.00;;;3.28;;
4812;SDS011;2420;51.202;8.698;2023-03-15T02:29:12;12.77;;;4.50;;
4812;SDS011;2420;51.202;8.698;2023-03-15T02:31:37;9.60;;;4.20;;
4812;SDS011;2420;51.202;8.698;2023-03-15T02:34:04;8.70;;;4.20;;
4812;SDS011;2420;51.202;8.698;2023-03-15T02:36:31;11.57;;;4.78;;
4812;SDS011;2420;51.202;8.698;2023-03-15T02:38:58;7.03;;;4.28;;
4812;SDS011;2420;51.202;8.698;2023-03-15T02:41:28;9.63;;;4.50;;
4812;SDS011;2420;51.202;8.698;2023-03-15T02:43:59;10.52;;;4.75;;
4812;SDS011;2420;51.202;8.698;2023-03-15T02:46:28;13.07;;;4.50;;
4812;SDS011;2420;51.202;8.698;2023-03-15T02:48:54;7.45;;;4.07;;
4812;SDS011;2420;51.202;8.698;2023-03-15T02:51:22;12.00;;;4.80;;
4812;SDS011;2420;51.202;8.698;2023-03-15T02:53:48;11.30;;;5.03;;
4812;SDS011;2420;51.202;8.698;2023-03-15T02:56:14;8.75;;;4.78;;
4812;SDS011;2420;51.202;8.698;2023-03-15T02:58:40;9.10;;;4.88;;
4812;SDS011;2420;51.202;8.698;2023-03-15T03:01:09;8.38;;;4.68;;
4812;SDS011;2420;51.202;8.698;2023-03-15T03:03:37;9.60;;;4.68;;
4812;SDS011;2420;51.202;8.698;2023-03-15T03:06:03;10.63;;;5.03;;
4812;SDS011;2420;51.202;8.698;2023-03-15T03:08:29;7.47;;;4.40;;
4812;SDS011;2420;51.202;8.698;2023-03-15T03:10:55;8.05;;;4.43;;
4812;SDS011;2420;51.202;8.698;2023-03-15T03:13:20;8.65;;;4.22;;
4812;SDS011;2420;51.202;8.698;2023-03-15T03:15:47;8.25;;;4.07;;
4812;SDS011;2420;51.202;8.698;2023-03-15T03:18:13;9.55;;;3.85;;
4812;SDS011;2420;51.202;8.698;2023-03-15T03:20:39;6.70;;;3.70;;
4812;SDS011;2420;51.202;8.698;2023-03-15T03:23:05;6.55;;;3.78;;
4812;SDS011;2420;51.202;8.698;2023-03-15T03:25:31;5.32;;;3.40;;
4812;SDS011;2420;51.202;8.698;2023-03-15T03:27:57;4.50;;;3.22;;
4812;SDS011;2420;51.202;8.698;2023-03-15T03:30:23;3.70;;;2.58;;
4812;SDS011;2420;51.202;8.698;2023-03-15T03:32:49;5.88;;;3.00;;
4812;SDS011;2420;51.202;8.698;2023-03-15T03:35:15;7.93;;;3.10;;
4812;SDS011;2420;51.202;8.698;2023-03-15T03:37:40;4.63;;;2.80;;
4812;SDS011;2420;51.202;8.698;2023-03-15T03:40:06;5.20;;;2.80;;
4812;SDS011;2420;51.202;8.698;2023-03-15T03:42:33;4.63;;;2.75;;
4812;SDS011;2420;51.202;8.698;2023-03-15T03:44:59;3.35;;;2.55;;
4812;SDS011;2420;51.202;8.698;2023-03-15T03:47:25;2.78;;;2.25;;
4812;SDS011;2420;51.202;8.698;2023-03-15T03:49:51;2.75;;;2.10;;
4812;SDS011;2420;51.202;8.698;2023-03-15T03:52:16;2.88;;;2.03;;
4812;SDS011;2420;51.202;8.698;2023-03-15T03:54:42;5.10;;;2.45;;
4812;SDS011;2420;51.202;8.698;2023-03-15T03:57:08;2.78;;;2.20;;
4812;SDS011;2420;51.202;8.698;2023-03-15T03:59:34;2.60;;;2.17;;
4812;SDS011;2420;51.202;8.698;2023-03-15T04:02:00;3.15;;;1.85;;
4812;SDS011;2420;51.202;8.698;2023-03-15T04:04:25;3.03;;;2.03;;
4812;SDS011;2420;51.202;8.698;2023-03-15T04:06:54;3.25;;;2.10;;
4812;SDS011;2420;51.202;8.698;2023-03-15T04:09:19;2.95;;;1.90;;
4812;SDS011;2420;51.202;8.698;2023-03-15T04:11:46;2.05;;;1.70;;
4812;SDS011;2420;51.202;8.698;2023-03-15T04:14:12;3.15;;;2.20;;
4812;SDS011;2420;51.202;8.698;2023-03-15T04:16:38;2.72;;;1.90;;
4812;SDS011;2420;51.202;8.698;2023-03-15T04:19:04;2.58;;;1.70;;
4812;SDS011;2420;51.202;8.698;2023-03-15T04:21:31;2.72;;;2.10;;
4812;SDS011;2420;51.202;8.698;2023-03-15T04:23:57;2.65;;;2.15;;
4812;SDS011;2420;51.202;8.698;2023-03-15T04:26:24;4.40;;;1.90;;
4812;SDS011;2420;51.202;8.698;2023-03-15T04:28:50;3.00;;;1.90;;
4812;SDS011;2420;51.202;8.698;2023-03-15T04:31:23;2.92;;;2.33;;
4812;SDS011;2420;51.202;8.698;2023-03-15T04:33:52;2.40;;;2.20;;
4812;SDS011;2420;51.202;8.698;2023-03-15T04:36:18;2.50;;;1.92;;
4812;SDS011;2420;51.202;8.698;2023-03-15T04:38:45;2.45;;;1.95;;
4812;SDS011;2420;51.202;8.698;2023-03-15T04:41:14;2.70;;;2.30;;
4812;SDS011;2420;51.202;8.698;2023-03-15T04:43:41;3.10;;;2.15;;
4812;SDS011;2420;51.202;8.698;2023-03-15T04:46:07;2.72;;;2.45;;
4812;SDS011;2420;51.202;8.698;2023-03-15T04:48:33;3.42;;;2.78;;
4812;SDS011;2420;51.202;8.698;2023-03-15T04:50:59;3.38;;;2.75;;
4812;SDS011;2420;51.202;8.698;2023-03-15T04:53:25;4.10;;;2.70;;
4812;SDS011;2420;51.202;8.698;2023-03-15T04:55:50;2.80;;;2.50;;
4812;SDS011;2420;51.202;8.698;2023-03-15T04:58:16;2.40;;;2.20;;
4812;SDS011;2420;51.202;8.698;2023-03-15T05:00:42;2.50;;;2.30;;
4812;SDS011;2420;51.202;8.698;2023-03-15T05:03:08;2.85;;;2.30;;
4812;SDS011;2420;51.202;8.698;2023-03-15T05:05:33;2.85;;;2.30;;
4812;SDS011;2420;51.202;8.698;2023-03-15T05:07:59;3.03;;;2.30;;
4812;SDS011;2420;51.202;8.698;2023-03-15T05:10:25;3.13;;;2.33;;
4812;SDS011;2420;51.202;8.698;2023-03-15T05:12:53;2.35;;;2.05;;
4812;SDS011;2420;51.202;8.698;2023-03-15T05:15:19;3.75;;;2.40;;
4812;SDS011;2420;51.202;8.698;2023-03-15T05:17:44;3.42;;;2.63;;
4812;SDS011;2420;51.202;8.698;2023-03-15T05:20:12;5.80;;;3.70;;
4812;SDS011;2420;51.202;8.698;2023-03-15T05:22:38;8.50;;;4.45;;
4812;SDS011;2420;51.202;8.698;2023-03-15T05:25:05;5.95;;;3.58;;
4812;SDS011;2420;51.202;8.698;2023-03-15T05:27:30;7.50;;;3.67;;
4812;SDS011;2420;51.202;8.698;2023-03-15T05:29:57;4.60;;;2.50;;
4812;SDS011;2420;51.202;8.698;2023-03-15T05:32:23;3.65;;;2.40;;
4812;SDS011;2420;51.202;8.698;2023-03-15T05:34:50;3.65;;;2.65;;
4812;SDS011;2420;51.202;8.698;2023-03-15T05:37:20;7.45;;;3.47;;
4812;SDS011;2420;51.202;8.698;2023-03-15T05:39:46;7.03;;;3.20;;
4812;SDS011;2420;51.202;8.698;2023-03-15T05:42:12;14.60;;;5.47;;
4812;SDS011;2420;51.202;8.698;2023-03-15T05:44:38;9.57;;;4.05;;
4812;SDS011;2420;51.202;8.698;2023-03-15T05:47:03;4.25;;;3.28;;
4812;SDS011;2420;51.202;8.698;2023-03-15T05:49:29;5.30;;;4.15;;
4812;SDS011;2420;51.202;8.698;2023-03-15T05:51:54;5.95;;;3.63;;
4812;SDS011;2420;51.202;8.698;2023-03-15T05:54:20;5.10;;;3.97;;
4812;SDS011;2420;51.202;8.698;2023-03-15T05:56:46;6.85;;;4.28;;
4812;SDS011;2420;51.202;8.698;2023-03-15T05:59:11;6.03;;;4.43;;
4812;SDS011;2420;51.202;8.698;2023-03-15T06:01:37;6.95;;;5.07;;
4812;SDS011;2420;51.202;8.698;2023-03-15T06:04:02;7.97;;;4.97;;
4812;SDS011;2420;51.202;8.698;2023-03-15T06:06:28;7.72;;;5.35;;
4812;SDS011;2420;51.202;8.698;2023-03-15T06:08:53;9.63;;;6.05;;
4812;SDS011;2420;51.202;8.698;2023-03-15T06:11:19;9.02;;;5.85;;
4812;SDS011;2420;51.202;8.698;2023-03-15T06:13:45;5.65;;;4.60;;
4812;SDS011;2420;51.202;8.698;2023-03-15T06:16:10;7.70;;;4.78;;
4812;SDS011;2420;51.202;8.698;2023-03-15T06:18:36;7.32;;;5.25;;
4812;SDS011;2420;51.202;8.698;2023-03-15T06:21:01;5.60;;;4.05;;
4812;SDS011;2420;51.202;8.698;2023-03-15T06:23:27;6.78;;;4.82;;
4812;SDS011;2420;51.202;8.698;2023-03-15T06:25:52;7.20;;;4.93;;
4812;SDS011;2420;51.202;8.698;2023-03-15T06:28:18;9.48;;;5.85;;
4812;SDS011;2420;51.202;8.698;2023-03-15T06:30:43;8.93;;;5.93;;
4812;SDS011;2420;51.202;8.698;2023-03-15T06:33:09;11.13;;;6.55;;
4812;SDS011;2420;51.202;8.698;2023-03-15T06:35:35;9.85;;;6.28;;
4812;SDS011;2420;51.202;8.698;2023-03-15T06:38:01;8.70;;;5.47;;
4812;SDS011;2420;51.202;8.698;2023-03-15T06:40:26;8.93;;;5.47;;
4812;SDS011;2420;51.202;8.698;2023-03-15T06:42:52;9.00;;;6.32;;
4812;SDS011;2420;51.202;8.698;2023-03-15T06:45:18;9.82;;;6.75;;
4812;SDS011;2420;51.202;8.698;2023-03-15T06:47:44;11.55;;;6.85;;
4812;SDS011;2420;51.202;8.698;2023-03-15T06:50:10;14.25;;;6.93;;
4812;SDS011;2420;51.202;8.698;2023-03-15T06:52:35;8.93;;;4.63;;
4812;SDS011;2420;51.202;8.698;2023-03-15T06:55:02;5.97;;;4.35;;
4812;SDS011;2420;51.202;8.698;2023-03-15T06:57:29;6.75;;;4.60;;
4812;SDS011;2420;51.202;8.698;2023-03-15T06:59:54;6.35;;;4.43;;
4812;SDS011;2420;51.202;8.698;2023-03-15T07:02:20;8.93;;;4.82;;
4812;SDS011;2420;51.202;8.698;2023-03-15T07:04:46;5.55;;;3.55;;
4812;SDS011;2420;51.202;8.698;2023-03-15T07:07:12;4.95;;;3.50;;
4812;SDS011;2420;51.202;8.698;2023-03-15T07:09:39;6.68;;;4.40;;
4812;SDS011;2420;51.202;8.698;2023-03-15T07:12:05;11.65;;;5.13;;
4812;SDS011;2420;51.202;8.698;2023-03-15T07:14:32;8.73;;;5.10;;
4812;SDS011;2420;51.202;8.698;2023-03-15T07:16:58;8.10;;;4.97;;
4812;SDS011;2420;51.202;8.698;2023-03-15T07:19:23;8.70;;;5.75;;
4812;SDS011;2420;51.202;8.698;2023-03-15T07:21:49;8.95;;;5.65;;
4812;SDS011;2420;51.202;8.698;2023-03-15T07:24:15;7.20;;;5.40;;
4812;SDS011;2420;51.202;8.698;2023-03-15T07:26:41;8.48;;;5.72;;
4812;SDS011;2420;51.202;8.698;2023-03-15T07:29:07;8.40;;;5.40;;
4812;SDS011;2420;51.202;8.698;2023-03-15T07:31:33;6.70;;;4.40;;
4812;SDS011;2420;51.202;8.698;2023-03-15T07:33:58;7.13;;;5.20;;
4812;SDS011;2420;51.202;8.698;2023-03-15T07:36:24;8.70;;;4.68;;
4812;SDS011;2420;51.202;8.698;2023-03-15T07:38:50;6.72;;;3.70;;
4812;SDS011;2420;51.202;8.698;2023-03-15T07:41:15;4.60;;;3.50;;
4812;SDS011;2420;51.202;8.698;2023-03-15T07:43:41;5.90;;;3.20;;
4812;SDS011;2420;51.202;8.698;2023-03-15T07:46:06;5.03;;;3.47;;
4812;SDS011;2420;51.202;8.698;2023-03-15T07:48:32;6.57;;;3.65;;
4812;SDS011;2420;51.202;8.698;2023-03-15T07:50:58;5.90;;;3.75;;
4812;SDS011;2420;51.202;8.698;2023-03-15T07:53:23;6.78;;;3.53;;
4812;SDS011;2420;51.202;8.698;2023-03-15T07:55:49;5.22;;;3.65;;
4812;SDS011;2420;51.202;8.698;2023-03-15T07:58:15;5.25;;;3.97;;
4812;SDS011;2420;51.202;8.698;2023-03-15T08:00:40;6.72;;;3.42;;
4812;SDS011;2420;51.202;8.698;2023-03-15T08:03:06;7.00;;;3.58;;
4812;SDS011;2420;51.202;8.698;2023-03-15T08:05:32;5.30;;;3.50;;
4812;SDS011;2420;51.202;8.698;2023-03-15T08:07:58;6.15;;;3.25;;
4812;SDS011;2420;51.202;8.698;2023-03-15T08:10:24;4.85;;;3.20;;
4812;SDS011;2420;51.202;8.698;2023-03-15T08:12:49;8.13;;;3.17;;
4812;SDS011;2420;51.202;8.698;2023-03-15T08:15:15;4.78;;;3.13;;
4812;SDS011;2420;51.202;8.698;2023-03-15T08:17:42;4.75;;;2.70;;
4812;SDS011;2420;51.202;8.698;2023-03-15T08:20:08;4.82;;;2.30;;
4812;SDS011;2420;51.202;8.698;2023-03-15T08:22:41;4.85;;;2.30;;
4812;SDS011;2420;51.202;8.698;2023-03-15T08:25:08;5.85;;;2.10;;
4812;SDS011;2420;51.202;8.698;2023-03-15T08:27:35;4.43;;;2.20;;
4812;SDS011;2420;51.202;8.698;2023-03-15T08:30:01;7.47;;;2.30;;
4812;SDS011;2420;51.202;8.698;2023-03-15T08:32:27;3.92;;;2.50;;
4812;SDS011;2420;51.202;8.698;2023-03-15T08:34:52;5.18;;;3.33;;
4812;SDS011;2420;51.202;8.698;2023-03-15T08:37:18;6.43;;;2.90;;
4812;SDS011;2420;51.202;8.698;2023-03-15T08:39:44;5.07;;;2.70;;
4812;SDS011;2420;51.202;8.698;2023-03-15T08:42:10;4.10;;;2.33;;
4812;SDS011;2420;51.202;8.698;2023-03-15T08:44:36;3.78;;;2.35;;
4812;SDS011;2420;51.202;8.698;2023-03-15T08:47:01;5.00;;;2.53;;
4812;SDS011;2420;51.202;8.698;2023-03-15T08:49:27;6.80;;;2.15;;
4812;SDS011;2420;51.202;8.698;2023-03-15T08:51:53;6.10;;;2.50;;
4812;SDS011;2420;51.202;8.698;2023-03-15T08:54:18;3.65;;;2.13;;
4812;SDS011;2420;51.202;8.698;2023-03-15T08:56:44;4.97;;;2.00;;
4812;SDS011;2420;51.202;8.698;2023-03-15T08:59:09;4.90;;;2.28;;
4812;SDS011;2420;51.202;8.698;2023-03-15T09:01:35;4.63;;;2.60;;
4812;SDS011;2420;51.202;8.698;2023-03-15T09:04:04;7.93;;;2.10;;
4812;SDS011;2420;51.202;8.698;2023-03-15T09:06:29;4.28;;;1.90;;
4812;SDS011;2420;51.202;8.698;2023-03-15T09:08:55;4.57;;;1.90;;
4812;SDS011;2420;51.202;8.698;2023-03-15T09:11:21;4.55;;;2.65;;
4812;SDS011;2420;51.202;8.698;2023-03-15T09:13:46;4.65;;;2.00;;
4812;SDS011;2420;51.202;8.698;2023-03-15T09:16:12;2.70;;;1.77;;
4812;SDS011;2420;51.202;8.698;2023-03-15T09:18:39;2.92;;;1.73;;
4812;SDS011;2420;51.202;8.698;2023-03-15T09:21:06;4.15;;;2.45;;
4812;SDS011;2420;51.202;8.698;2023-03-15T09:23:32;4.05;;;2.10;;
4812;SDS011;2420;51.202;8.698;2023-03-15T09:25:58;3.70;;;2.00;;
4812;SDS011;2420;51.202;8.698;2023-03-15T09:28:23;5.30;;;1.88;;
4812;SDS011;2420;51.202;8.698;2023-03-15T09:30:50;3.38;;;1.65;;
4812;SDS011;2420;51.202;8.698;2023-03-15T09:33:16;4.82;;;1.63;;
4812;SDS011;2420;51.202;8.698;2023-03-15T09:35:41;3.53;;;2.10;;
4812;SDS011;2420;51.202;8.698;2023-03-15T09:38:07;4.50;;;1.98;;
4812;SDS011;2420;51.202;8.698;2023-03-15T09:40:43;3.47;;;1.80;;
4812;SDS011;2420;51.202;8.698;2023-03-15T09:48:36;3.67;;;1.60;;
4812;SDS011;2420;51.202;8.698;2023-03-15T09:51:15;4.35;;;2.22;;
4812;SDS011;2420;51.202;8.698;2023-03-15T09:53:59;3.30;;;1.88;;
4812;SDS011;2420;51.202;8.698;2023-03-15T09:56:59;4.75;;;1.75;;
4812;SDS011;2420;51.202;8.698;2023-03-15T09:59:48;3.65;;;1.70;;
4812;SDS011;2420;51.202;8.698;2023-03-15T10:04:43;4.45;;;2.25;;
4812;SDS011;2420;51.202;8.698;2023-03-15T10:07:12;4.40;;;1.98;;
4812;SDS011;2420;51.202;8.698;2023-03-15T10:09:39;8.00;;;2.30;;
4812;SDS011;2420;51.202;8.698;2023-03-15T10:17:23;5.55;;;2.75;;
4812;SDS011;2420;51.202;8.698;2023-03-15T10:20:10;5.70;;;1.77;;
4812;SDS011;2420;51.202;8.698;2023-03-15T10:23:01;2.92;;;1.90;;
4812;SDS011;2420;51.202;8.698;2023-03-15T10:25:34;3.33;;;2.10;;
4812;SDS011;2420;51.202;8.698;2023-03-15T10:30:37;3.72;;;1.73;;
4812;SDS011;2420;51.202;8.698;2023-03-15T10:33:14;5.43;;;1.77;;
4812;SDS011;2420;51.202;8.698;2023-03-15T10:35:44;3.90;;;1.90;;
4812;SDS011;2420;51.202;8.698;2023-03-15T10:38:16;3.50;;;1.90;;
4812;SDS011;2420;51.202;8.698;2023-03-15T10:40:49;4.72;;;1.90;;
4812;SDS011;2420;51.202;8.698;2023-03-15T10:43:20;4.95;;;2.20;;
4812;SDS011;2420;51.202;8.698;2023-03-15T10:46:00;4.03;;;1.83;;
4812;SDS011;2420;51.202;8.698;2023-03-15T10:48:35;4.68;;;1.85;;
4812;SDS011;2420;51.202;8.698;2023-03-15T10:51:15;3.22;;;1.83;;
4812;SDS011;2420;51.202;8.698;2023-03-15T10:56:49;5.20;;;1.70;;
4812;SDS011;2420;51.202;8.698;2023-03-15T10:59:20;3.33;;;1.40;;
4812;SDS011;2420;51.202;8.698;2023-03-15T11:01:50;21.60;;;8.07;;
4812;SDS011;2420;51.202;8.698;2023-03-15T11:04:18;5.93;;;1.58;;
4812;SDS011;2420;51.202;8.698;2023-03-15T11:06:49;5.68;;;1.50;;
4812;SDS011;2420;51.202;8.698;2023-03-15T11:09:19;5.95;;;1.70;;
4812;SDS011;2420;51.202;8.698;2023-03-15T11:12:05;3.85;;;1.40;;
4812;SDS011;2420;51.202;8.698;2023-03-15T11:17:07;2.53;;;1.40;;
4812;SDS011;2420;51.202;8.698;2023-03-15T11:19:41;4.68;;;1.88;;
4812;SDS011;2420;51.202;8.698;2023-03-15T11:22:15;2.08;;;1.67;;
4812;SDS011;2420;51.202;8.698;2023-03-15T11:24:41;4.35;;;2.08;;
4812;SDS011;2420;51.202;8.698;2023-03-15T11:27:24;3.78;;;1.90;;
4812;SDS011;2420;51.202;8.698;2023-03-15T11:29:55;6.22;;;1.88;;
4812;SDS011;2420;51.202;8.698;2023-03-15T11:32:24;4.10;;;1.95;;
4812;SDS011;2420;51.202;8.698;2023-03-15T11:34:58;3.45;;;1.92;;
4812;SDS011;2420;51.202;8.698;2023-03-15T11:37:46;5.03;;;1.70;;
4812;SDS011;2420;51.202;8.698;2023-03-15T11:40:16;6.90;;;1.95;;
4812;SDS011;2420;51.202;8.698;2023-03-15T11:42:48;3.55;;;1.95;;
4812;SDS011;2420;51.202;8.698;2023-03-15T11:51:04;4.53;;;2.40;;
4812;SDS011;2420;51.202;8.698;2023-03-15T11:53:35;3.92;;;1.90;;
4812;SDS011;2420;51.202;8.698;2023-03-15T11:56:26;5.60;;;1.92;;
4812;SDS011;2420;51.202;8.698;2023-03-15T12:01:48;4.30;;;1.75;;
4812;SDS011;2420;51.202;8.698;2023-03-15T12:06:57;4.95;;;1.95;;
4812;SDS011;2420;51.202;8.698;2023-03-15T12:11:57;4.55;;;1.80;;
4812;SDS011;2420;51.202;8.698;2023-03-15T12:14:28;9.63;;;3.00;;
4812;SDS011;2420;51.202;8.698;2023-03-15T12:22:45;2.90;;;1.90;;
4812;SDS011;2420;51.202;8.698;2023-03-15T12:25:29;3.45;;;1.38;;
4812;SDS011;2420;51.202;8.698;2023-03-15T12:27:59;5.80;;;1.98;;
4812;SDS011;2420;51.202;8.698;2023-03-15T12:30:36;2.00;;;1.33;;
4812;SDS011;2420;51.202;8.698;2023-03-15T12:33:10;2.17;;;1.40;;
4812;SDS011;2420;51.202;8.698;2023-03-15T12:35:43;3.55;;;1.30;;
4812;SDS011;2420;51.202;8.698;2023-03-15T12:38:14;2.55;;;1.55;;
4812;SDS011;2420;51.202;8.698;2023-03-15T12:40:52;4.35;;;1.45;;
4812;SDS011;2420;51.202;8.698;2023-03-15T12:43:38;3.00;;;1.60;;
4812;SDS011;2420;51.202;8.698;2023-03-15T12:49:12;4.25;;;1.80;;
4812;SDS011;2420;51.202;8.698;2023-03-15T12:54:33;4.43;;;1.80;;
4812;SDS011;2420;51.202;8.698;2023-03-15T12:57:09;6.13;;;1.95;;
4812;SDS011;2420;51.202;8.698;2023-03-15T13:10:33;3.33;;;2.30;;
4812;SDS011;2420;51.202;8.698;2023-03-15T13:16:07;3.17;;;1.38;;
4812;SDS011;2420;51.202;8.698;2023-03-15T13:25:01;2.13;;;1.50;;
4812;SDS011;2420;51.202;8.698;2023-03-15T13:27:40;4.22;;;1.50;;
4812;SDS011;2420;51.202;8.698;2023-03-15T13:35:53;5.97;;;1.65;;
4812;SDS011;2420;51.202;8.698;2023-03-15T13:38:29;3.67;;;1.80;;
4812;SDS011;2420;51.202;8.698;2023-03-15T13:41:00;4.07;;;1.75;;
4812;SDS011;2420;51.202;8.698;2023-03-15T13:43:29;4.63;;;1.55;;
4812;SDS011;2420;51.202;8.698;2023-03-15T13:45:58;3.92;;;1.70;;
4812;SDS011;2420;51.202;8.698;2023-03-15T13:48:25;3.65;;;1.30;;
4812;SDS011;2420;51.202;8.698;2023-03-15T13:50:54;2.97;;;1.10;;
4812;SDS011;2420;51.202;8.698;2023-03-15T13:53:25;4.25;;;1.30;;
4812;SDS011;2420;51.202;8.698;2023-03-15T13:55:51;2.38;;;1.50;;
4812;SDS011;2420;51.202;8.698;2023-03-15T13:58:21;5.53;;;1.70;;
4812;SDS011;2420;51.202;8.698;2023-03-15T14:00:48;3.72;;;1.50;;
4812;SDS011;2420;51.202;8.698;2023-03-15T14:03:20;2.38;;;1.45;;
4812;SDS011;2420;51.202;8.698;2023-03-15T14:05:50;5.22;;;1.40;;
4812;SDS011;2420;51.202;8.698;2023-03-15T14:08:34;6.72;;;1.42;;
4812;SDS011;2420;51.202;8.698;2023-03-15T14:19:06;2.20;;;1.10;;
4812;SDS011;2420;51.202;8.698;2023-03-15T14:21:40;4.05;;;1.35;;
4812;SDS011;2420;51.202;8.698;2023-03-15T14:24:11;2.50;;;1.10;;
4812;SDS011;2420;51.202;8.698;2023-03-15T14:26:48;7.22;;;1.40;;
4812;SDS011;2420;51.202;8.698;2023-03-15T14:29:18;4.50;;;1.38;;
4812;SDS011;2420;51.202;8.698;2023-03-15T14:31:50;2.72;;;1.48;;
4812;SDS011;2420;51.202;8.698;2023-03-15T14:36:57;4.22;;;1.33;;
4812;SDS011;2420;51.202;8.698;2023-03-15T14:39:36;2.67;;;1.25;;
4812;SDS011;2420;51.202;8.698;2023-03-15T14:42:04;2.00;;;1.02;;
4812;SDS011;2420;51.202;8.698;2023-03-15T14:44:34;4.60;;;1.42;;
4812;SDS011;2420;51.202;8.698;2023-03-15T14:47:00;5.53;;;1.15;;
4812;SDS011;2420;51.202;8.698;2023-03-15T14:49:27;2.03;;;1.05;;
4812;SDS011;2420;51.202;8.698;2023-03-15T14:51:58;2.00;;;1.20;;
4812;SDS011;2420;51.202;8.698;2023-03-15T14:54:27;2.38;;;1.20;;
4812;SDS011;2420;51.202;8.698;2023-03-15T14:56:54;3.42;;;1.15;;
4812;SDS011;2420;51.202;8.698;2023-03-15T14:59:19;3.35;;;1.05;;
4812;SDS011;2420;51.202;8.698;2023-03-15T15:01:47;4.72;;;1.17;;
4812;SDS011;2420;51.202;8.698;2023-03-15T15:04:16;2.38;;;0.90;;
4812;SDS011;2420;51.202;8.698;2023-03-15T15:06:43;2.75;;;1.25;;
4812;SDS011;2420;51.202;8.698;2023-03-15T15:09:17;3.28;;;1.20;;
4812;SDS011;2420;51.202;8.698;2023-03-15T15:11:47;1.98;;;0.90;;
4812;SDS011;2420;51.202;8.698;2023-03-15T15:14:13;1.67;;;0.90;;
4812;SDS011;2420;51.202;8.698;2023-03-15T15:16:40;3.65;;;1.30;;
4812;SDS011;2420;51.202;8.698;2023-03-15T15:19:06;2.55;;;1.20;;
4812;SDS011;2420;51.202;8.698;2023-03-15T15:21:31;3.25;;;1.00;;
4812;SDS011;2420;51.202;8.698;2023-03-15T15:23:57;2.63;;;1.10;;
4812;SDS011;2420;51.202;8.698;2023-03-15T15:26:24;4.35;;;1.30;;
4812;SDS011;2420;51.202;8.698;2023-03-15T15:28:51;3.30;;;1.33;;
4812;SDS011;2420;51.202;8.698;2023-03-15T15:31:20;3.30;;;1.63;;
4812;SDS011;2420;51.202;8.698;2023-03-15T15:33:48;2.47;;;1.40;;
4812;SDS011;2420;51.202;8.698;2023-03-15T15:36:31;2.92;;;1.02;;
4812;SDS011;2420;51.202;8.698;2023-03-15T15:38:59;2.92;;;1.52;;
4812;SDS011;2420;51.202;8.698;2023-03-15T15:41:28;1.90;;;1.15;;
4812;SDS011;2420;51.202;8.698;2023-03-15T15:43:55;3.38;;;1.70;;
4812;SDS011;2420;51.202;8.698;2023-03-15T15:46:21;3.85;;;1.60;;
4812;SDS011;2420;51.202;8.698;2023-03-15T15:48:48;2.78;;;1.55;;
4812;SDS011;2420;51.202;8.698;2023-03-15T15:51:27;1.80;;;1.13;;
4812;SDS011;2420;51.202;8.698;2023-03-15T15:53:56;3.58;;;1.75;;
4812;SDS011;2420;51.202;8.698;2023-03-15T15:56:31;2.38;;;1.40;;
4812;SDS011;2420;51.202;8.698;2023-03-15T15:59:11;2.17;;;1.30;;
4812;SDS011;2420;51.202;8.698;2023-03-15T16:01:39;6.57;;;1.50;;
4812;SDS011;2420;51.202;8.698;2023-03-15T16:04:05;4.20;;;1.42;;
4812;SDS011;2420;51.202;8.698;2023-03-15T16:06:31;6.88;;;1.70;;
4812;SDS011;2420;51.202;8.698;2023-03-15T16:08:57;2.58;;;1.40;;
4812;SDS011;2420;51.202;8.698;2023-03-15T16:11:23;3.95;;;1.35;;
4812;SDS011;2420;51.202;8.698;2023-03-15T16:13:51;3.33;;;1.23;;
4812;SDS011;2420;51.202;8.698;2023-03-15T16:16:20;1.75;;;1.15;;
4812;SDS011;2420;51.202;8.698;2023-03-15T16:18:46;3.55;;;1.40;;
4812;SDS011;2420;51.202;8.698;2023-03-15T16:21:16;2.78;;;1.55;;
4812;SDS011;2420;51.202;8.698;2023-03-15T16:24:05;3.15;;;1.60;;
4812;SDS011;2420;51.202;8.698;2023-03-15T16:26:43;6.38;;;1.67;;
4812;SDS011;2420;51.202;8.698;2023-03-15T16:29:18;2.78;;;1.40;;
4812;SDS011;2420;51.202;8.698;2023-03-15T16:31:45;3.90;;;1.63;;
4812;SDS011;2420;51.202;8.698;2023-03-15T16:34:12;3.35;;;1.42;;
4812;SDS011;2420;51.202;8.698;2023-03-15T16:36:40;4.18;;;1.65;;
4812;SDS011;2420;51.202;8.698;2023-03-15T16:39:08;3.95;;;1.65;;
4812;SDS011;2420;51.202;8.698;2023-03-15T16:41:38;4.03;;;1.52;;
4812;SDS011;2420;51.202;8.698;2023-03-15T16:44:11;2.28;;;1.73;;
4812;SDS011;2420;51.202;8.698;2023-03-15T16:46:38;8.00;;;2.55;;
4812;SDS011;2420;51.202;8.698;2023-03-15T16:49:03;4.38;;;1.90;;
4812;SDS011;2420;51.202;8.698;2023-03-15T16:51:29;3.15;;;1.90;;